createdAt,value
2019-06-26T00:01:35.547Z,8.98
2019-06-26T00:04:05.129Z,9.90
2019-06-26T00:06:34.683Z,9.05
2019-06-26T00:09:05.160Z,9.10
2019-06-26T00:14:03.412Z,8.93
2019-06-26T00:16:33.020Z,9.28
2019-06-26T00:19:02.579Z,8.97
2019-06-26T00:21:32.124Z,9.70
2019-06-26T00:24:01.735Z,8.30
2019-06-26T00:26:31.404Z,9.20
2019-06-26T00:29:01.018Z,9.90
2019-06-26T00:31:31.735Z,10.35
2019-06-26T00:34:01.350Z,9.60
2019-06-26T00:36:30.885Z,9.70
2019-06-26T00:39:00.428Z,9.27
2019-06-26T00:41:31.596Z,8.98
2019-06-26T00:44:01.210Z,8.97
2019-06-26T00:46:30.733Z,9.63
2019-06-26T00:49:00.295Z,9.13
2019-06-26T00:51:29.836Z,9.00
2019-06-26T00:53:59.423Z,9.17
2019-06-26T00:56:29.070Z,9.13
2019-06-26T00:58:58.628Z,9.40
2019-06-26T01:01:28.318Z,8.85
2019-06-26T01:04:01.223Z,10.23
2019-06-26T01:06:45.855Z,8.70
2019-06-26T01:09:15.404Z,8.85
2019-06-26T01:11:45.091Z,8.53
2019-06-26T01:14:14.653Z,9.35
2019-06-26T01:16:44.192Z,8.80
2019-06-26T01:19:13.762Z,9.53
2019-06-26T01:21:51.028Z,9.50
2019-06-26T01:24:20.564Z,9.30
2019-06-26T01:26:50.159Z,9.07
2019-06-26T01:29:19.687Z,9.30
2019-06-26T01:31:49.223Z,9.13
2019-06-26T01:34:18.767Z,9.23
2019-06-26T01:36:48.439Z,9.53
2019-06-26T01:39:17.975Z,9.63
2019-06-26T01:41:47.544Z,9.17
2019-06-26T01:44:17.099Z,8.87
2019-06-26T01:46:46.652Z,8.87
2019-06-26T01:49:16.190Z,9.23
2019-06-26T01:51:45.828Z,9.10
2019-06-26T01:54:15.425Z,8.78
2019-06-26T01:56:44.983Z,8.50
2019-06-26T01:59:14.606Z,8.23
2019-06-26T02:01:44.212Z,7.75
2019-06-26T02:04:15.671Z,7.93
2019-06-26T02:06:45.237Z,8.75
2019-06-26T02:09:14.910Z,8.60
2019-06-26T02:11:44.570Z,8.95
2019-06-26T02:14:29.644Z,8.20
2019-06-26T02:16:45.349Z,8.43
2019-06-26T02:19:15.898Z,8.47
2019-06-26T02:21:45.657Z,8.35
2019-06-26T02:24:15.214Z,8.65
2019-06-26T02:26:44.777Z,7.93
2019-06-26T02:29:14.307Z,8.73
2019-06-26T02:31:43.845Z,8.15
2019-06-26T02:34:13.374Z,8.60
2019-06-26T02:36:43.044Z,8.45
2019-06-26T02:39:12.599Z,9.05
2019-06-26T02:41:42.154Z,8.10
2019-06-26T02:44:13.809Z,9.00
2019-06-26T02:46:43.355Z,8.80
2019-06-26T02:49:12.897Z,8.70
2019-06-26T02:51:42.457Z,8.65
2019-06-26T02:54:12.008Z,8.80
2019-06-26T02:56:41.532Z,8.73
2019-06-26T02:59:11.106Z,8.90
2019-06-26T03:01:40.718Z,8.67
2019-06-26T03:04:10.264Z,8.67
2019-06-26T03:06:39.812Z,8.65
2019-06-26T03:09:09.360Z,8.60
2019-06-26T03:11:38.932Z,8.13
2019-06-26T03:14:09.590Z,8.73
2019-06-26T03:16:39.108Z,8.93
2019-06-26T03:19:08.775Z,9.18
2019-06-26T03:21:38.335Z,8.50
2019-06-26T03:24:07.872Z,9.38
2019-06-26T03:26:37.426Z,9.20
2019-06-26T03:29:06.983Z,8.55
2019-06-26T03:31:36.527Z,9.13
2019-06-26T03:34:06.031Z,8.85
2019-06-26T03:36:43.322Z,9.33
2019-06-26T03:39:12.881Z,8.98
2019-06-26T03:41:42.431Z,9.03
2019-06-26T03:44:12.076Z,9.77
2019-06-26T03:46:41.720Z,9.25
2019-06-26T03:49:11.358Z,9.23
2019-06-26T03:51:40.892Z,9.30
2019-06-26T03:54:10.461Z,9.68
2019-06-26T03:56:41.189Z,9.27
2019-06-26T03:59:10.756Z,9.70
2019-06-26T04:01:40.436Z,9.68
2019-06-26T04:04:09.979Z,10.00
2019-06-26T04:06:39.576Z,10.47
2019-06-26T04:09:09.154Z,10.13
2019-06-26T04:11:38.790Z,9.53
2019-06-26T04:14:08.409Z,9.40
2019-06-26T04:16:38.035Z,9.75
2019-06-26T04:19:07.626Z,9.37
2019-06-26T04:21:37.215Z,9.63
2019-06-26T04:24:06.834Z,9.23
2019-06-26T04:26:37.172Z,9.40
2019-06-26T04:29:06.887Z,10.35
2019-06-26T04:31:36.581Z,10.03
2019-06-26T04:34:06.211Z,9.37
2019-06-26T04:36:35.856Z,9.27
2019-06-26T04:39:07.288Z,9.17
2019-06-26T04:41:36.885Z,9.13
2019-06-26T04:44:06.485Z,9.20
2019-06-26T04:46:36.244Z,9.40
2019-06-26T04:49:05.868Z,8.37
2019-06-26T04:51:36.437Z,7.87
2019-06-26T04:54:07.094Z,7.97
2019-06-26T04:56:36.667Z,7.67
2019-06-26T04:59:06.268Z,7.70
2019-06-26T05:01:35.869Z,8.03
2019-06-26T05:04:05.447Z,8.00
2019-06-26T05:06:35.035Z,8.13
2019-06-26T05:09:07.384Z,8.65
2019-06-26T05:11:36.949Z,7.87
2019-06-26T05:14:06.577Z,8.37
2019-06-26T05:16:36.250Z,8.57
2019-06-26T05:19:05.901Z,7.50
2019-06-26T05:21:35.476Z,7.53
2019-06-26T05:24:05.049Z,8.20
2019-06-26T05:26:34.665Z,7.03
2019-06-26T05:29:05.259Z,7.87
2019-06-26T05:31:34.908Z,7.57
2019-06-26T05:34:04.478Z,18.63
2019-06-26T05:36:34.075Z,9.73
2019-06-26T05:39:05.279Z,7.03
2019-06-26T05:41:34.963Z,7.15
2019-06-26T05:44:04.740Z,8.20
2019-06-26T05:46:34.329Z,7.97
2019-06-26T05:49:03.922Z,6.93
2019-06-26T05:51:33.471Z,7.40
2019-06-26T05:54:03.142Z,7.33
2019-06-26T05:56:32.754Z,6.62
2019-06-26T05:59:02.555Z,7.37
2019-06-26T06:01:32.175Z,6.95
2019-06-26T06:04:01.789Z,7.30
2019-06-26T06:06:41.857Z,17.03
2019-06-26T06:09:05.070Z,9.80
2019-06-26T06:11:36.047Z,8.58
2019-06-26T06:14:06.303Z,7.35
2019-06-26T06:16:47.503Z,7.35
2019-06-26T06:19:12.560Z,6.62
2019-06-26T06:21:42.405Z,6.97
2019-06-26T06:24:12.186Z,7.30
2019-06-26T06:26:41.897Z,7.25
2019-06-26T06:29:11.517Z,7.28
2019-06-26T06:31:41.737Z,7.00
2019-06-26T06:34:11.675Z,6.55
2019-06-26T06:36:41.564Z,6.60
2019-06-26T06:39:12.270Z,5.95
2019-06-26T06:41:43.576Z,6.50
2019-06-26T06:44:16.188Z,7.08
2019-06-26T06:47:02.818Z,6.03
2019-06-26T06:49:19.300Z,6.75
2019-06-26T06:51:49.705Z,6.75
2019-06-26T06:56:49.148Z,6.83
2019-06-26T06:59:18.806Z,7.10
2019-06-26T07:01:48.941Z,6.35
2019-06-26T07:04:18.981Z,6.80
2019-06-26T07:06:49.237Z,6.33
2019-06-26T07:09:19.542Z,6.42
2019-06-26T07:11:49.246Z,6.50
2019-06-26T07:14:18.882Z,6.58
2019-06-26T07:16:48.466Z,6.30
2019-06-26T07:19:18.136Z,6.65
2019-06-26T07:21:48.158Z,6.55
2019-06-26T07:24:17.887Z,6.85
2019-06-26T07:26:47.564Z,7.03
2019-06-26T07:29:17.493Z,6.97
2019-06-26T07:31:47.597Z,7.08
2019-06-26T07:34:17.549Z,7.35
2019-06-26T07:36:47.197Z,6.95
2019-06-26T07:39:17.460Z,7.53
2019-06-26T07:41:47.314Z,7.00
2019-06-26T07:44:17.034Z,7.75
2019-06-26T07:46:46.850Z,6.60
2019-06-26T07:49:16.620Z,7.20
2019-06-26T07:51:46.591Z,7.00
2019-06-26T07:54:16.167Z,6.37
2019-06-26T07:56:45.743Z,6.90
2019-06-26T07:59:15.458Z,6.73
2019-06-26T08:01:45.245Z,6.85
2019-06-26T08:04:14.909Z,7.35
2019-06-26T08:06:44.607Z,6.75
2019-06-26T08:09:14.188Z,7.33
2019-06-26T08:11:43.760Z,6.78
2019-06-26T08:14:13.388Z,6.90
2019-06-26T08:16:43.169Z,6.80
2019-06-26T08:19:12.836Z,6.67
2019-06-26T08:21:46.398Z,6.95
2019-06-26T08:24:14.012Z,7.10
2019-06-26T08:26:43.613Z,6.35
2019-06-26T08:29:13.233Z,6.97
2019-06-26T08:31:42.820Z,6.55
2019-06-26T08:34:12.405Z,6.87
2019-06-26T08:36:42.034Z,6.90
2019-06-26T08:39:11.642Z,6.80
2019-06-26T08:41:41.250Z,6.70
2019-06-26T08:44:10.833Z,7.58
2019-06-26T08:46:40.412Z,7.28
2019-06-26T08:49:24.313Z,6.95
2019-06-26T08:51:41.669Z,7.62
2019-06-26T08:54:11.370Z,7.10
2019-06-26T08:56:40.939Z,7.60
2019-06-26T08:59:10.615Z,7.50
2019-06-26T09:01:40.227Z,7.50
2019-06-26T09:04:10.587Z,7.92
2019-06-26T09:06:40.234Z,7.35
2019-06-26T09:09:10.300Z,7.05
2019-06-26T09:11:40.038Z,6.37
2019-06-26T09:14:09.601Z,6.75
2019-06-26T09:16:39.205Z,6.62
2019-06-26T09:19:08.825Z,6.55
2019-06-26T09:21:38.596Z,6.37
2019-06-26T09:24:08.190Z,6.70
2019-06-26T09:26:37.771Z,6.65
2019-06-26T09:29:07.659Z,6.12
2019-06-26T09:31:37.305Z,6.60
2019-06-26T09:34:06.901Z,6.10
2019-06-26T09:36:37.554Z,6.40
2019-06-26T09:39:08.009Z,6.58
2019-06-26T09:41:37.593Z,6.35
2019-06-26T09:44:07.175Z,6.95
2019-06-26T09:46:36.753Z,6.55
2019-06-26T09:49:06.491Z,7.08
2019-06-26T09:51:36.182Z,6.35
2019-06-26T09:54:05.741Z,6.87
2019-06-26T09:56:35.317Z,6.55
2019-06-26T09:59:05.086Z,6.70
2019-06-26T10:01:34.784Z,6.33
2019-06-26T10:04:04.396Z,6.22
2019-06-26T10:06:33.991Z,6.75
2019-06-26T10:09:04.093Z,6.87
2019-06-26T10:14:02.397Z,6.60
2019-06-26T10:16:32.088Z,6.28
2019-06-26T10:19:10.152Z,6.47
2019-06-26T10:21:33.062Z,5.83
2019-06-26T10:24:02.841Z,6.50
2019-06-26T10:26:33.524Z,5.90
2019-06-26T10:29:03.091Z,5.67
2019-06-26T10:31:32.708Z,5.92
2019-06-26T10:34:02.491Z,6.47
2019-06-26T10:36:32.100Z,6.60
2019-06-26T10:39:01.862Z,6.45
2019-06-26T10:41:33.189Z,5.78
2019-06-26T10:44:02.989Z,6.45
2019-06-26T10:46:32.885Z,6.80
2019-06-26T10:49:02.550Z,6.22
2019-06-26T10:51:32.343Z,7.53
2019-06-26T10:54:07.728Z,6.40
2019-06-26T10:56:38.062Z,7.45
2019-06-26T10:59:08.230Z,6.87
2019-06-26T11:04:07.126Z,5.80
2019-06-26T11:06:37.576Z,5.92
2019-06-26T11:09:08.832Z,7.55
2019-06-26T11:11:39.006Z,7.10
2019-06-26T11:14:09.223Z,8.05
2019-06-26T11:16:42.002Z,6.80
2019-06-26T11:19:11.809Z,6.10
2019-06-26T11:21:42.138Z,6.40
2019-06-26T11:24:13.192Z,6.72
2019-06-26T11:29:11.968Z,6.00
2019-06-26T11:31:42.380Z,6.28
2019-06-26T11:34:12.811Z,6.60
2019-06-26T11:36:42.691Z,6.10
2019-06-26T11:39:15.132Z,6.42
2019-06-26T11:41:45.551Z,6.17
2019-06-26T11:44:16.977Z,6.47
2019-06-26T11:46:52.312Z,5.97
2019-06-26T11:49:22.981Z,6.25
2019-06-26T11:51:52.933Z,6.40
2019-06-26T11:56:51.898Z,6.20
2019-06-26T11:59:21.973Z,6.22
2019-06-26T12:04:23.683Z,6.33
2019-06-26T12:06:53.394Z,5.95
2019-06-26T12:09:23.447Z,6.60
2019-06-26T12:11:53.782Z,6.60
2019-06-26T12:14:27.017Z,6.70
2019-06-26T12:16:59.806Z,6.12
2019-06-26T12:19:30.925Z,6.05
2019-06-26T12:24:29.614Z,6.30
2019-06-26T12:26:59.740Z,6.08
2019-06-26T12:29:32.861Z,5.90
2019-06-26T12:32:01.762Z,5.72
2019-06-26T12:34:31.519Z,6.62
2019-06-26T12:37:02.691Z,5.72
2019-06-26T12:39:32.404Z,6.25
2019-06-26T12:42:02.391Z,6.28
2019-06-26T12:44:33.040Z,5.87
2019-06-26T12:47:02.695Z,6.70
2019-06-26T12:49:33.410Z,6.60
2019-06-26T12:52:03.561Z,6.30
2019-06-26T12:54:34.083Z,6.03
2019-06-26T12:57:04.359Z,6.05
2019-06-26T12:59:34.376Z,6.20
2019-06-26T13:02:04.904Z,5.85
2019-06-26T13:04:34.803Z,5.90
2019-06-26T13:12:03.243Z,5.58
2019-06-26T13:14:33.178Z,5.85
2019-06-26T13:17:05.934Z,6.15
2019-06-26T13:19:36.134Z,5.22
2019-06-26T13:22:14.605Z,5.45
2019-06-26T13:24:46.330Z,6.22
2019-06-26T13:27:16.895Z,5.80
2019-06-26T13:29:46.471Z,5.92
2019-06-26T13:32:17.000Z,5.80
2019-06-26T13:34:47.015Z,5.45
2019-06-26T13:37:17.827Z,5.78
2019-06-26T13:39:48.444Z,5.62
2019-06-26T13:42:18.570Z,5.80
2019-06-26T13:44:48.688Z,6.20
2019-06-26T13:47:20.430Z,6.25
2019-06-26T13:49:50.204Z,5.95
2019-06-26T13:54:51.552Z,5.72
2019-06-26T13:57:22.057Z,6.00
2019-06-26T13:59:52.309Z,6.10
2019-06-26T14:02:25.736Z,6.65
2019-06-26T14:04:55.723Z,6.22
2019-06-26T14:07:28.166Z,6.35
2019-06-26T14:09:58.900Z,6.05
2019-06-26T14:12:29.000Z,6.92
2019-06-26T14:15:00.226Z,8.63
2019-06-26T14:17:31.028Z,7.97
2019-06-26T14:20:02.682Z,7.00
2019-06-26T14:22:34.829Z,6.30
2019-06-26T14:25:05.105Z,6.45
2019-06-26T14:27:36.273Z,6.47
2019-06-26T14:30:06.786Z,6.08
2019-06-26T14:32:37.419Z,6.40
2019-06-26T14:35:07.101Z,6.10
2019-06-26T14:42:39.906Z,6.12
2019-06-26T14:45:10.150Z,6.53
2019-06-26T14:47:41.135Z,5.62
2019-06-26T14:50:14.316Z,6.67
2019-06-26T14:52:46.100Z,6.40
2019-06-26T14:55:20.334Z,6.17
2019-06-26T14:57:50.473Z,5.97
2019-06-26T15:00:21.510Z,6.30
2019-06-26T15:02:51.857Z,6.05
2019-06-26T15:11:33.865Z,6.35
2019-06-26T15:18:05.470Z,5.92
2019-06-26T15:21:01.255Z,5.78
2019-06-26T15:23:31.808Z,6.00
2019-06-26T15:26:02.154Z,5.62
2019-06-26T15:28:32.488Z,5.55
2019-06-26T15:31:07.927Z,5.95
2019-06-26T15:33:44.565Z,6.45
2019-06-26T15:36:15.051Z,5.50
2019-06-26T15:38:45.430Z,5.45
2019-06-26T15:41:17.160Z,5.40
2019-06-26T15:43:48.480Z,5.30
2019-06-26T15:46:28.061Z,5.60
2019-06-26T15:51:27.760Z,5.50
2019-06-26T15:54:00.029Z,5.87
2019-06-26T15:56:30.732Z,5.60
2019-06-26T15:59:00.541Z,5.80
2019-06-26T16:01:30.192Z,5.10
2019-06-26T16:06:28.510Z,4.80
2019-06-26T16:11:35.596Z,5.83
2019-06-26T16:14:05.655Z,5.92
2019-06-26T16:16:40.571Z,6.50
2019-06-26T16:19:14.202Z,6.35
2019-06-26T16:21:44.326Z,6.28
2019-06-26T16:24:14.445Z,5.95
2019-06-26T16:26:44.362Z,6.30
2019-06-26T16:29:14.839Z,6.50
2019-06-26T16:31:44.500Z,6.85
2019-06-26T16:36:45.953Z,6.12
2019-06-26T16:39:20.575Z,6.58
2019-06-26T16:41:52.394Z,6.58
2019-06-26T16:44:25.878Z,5.90
2019-06-26T16:47:00.046Z,6.90
2019-06-26T16:49:30.798Z,6.97
2019-06-26T16:52:02.598Z,7.53
2019-06-26T16:54:33.773Z,9.20
2019-06-26T16:57:03.779Z,7.67
2019-06-26T16:59:33.410Z,7.83
2019-06-26T17:04:32.565Z,6.97
2019-06-26T17:07:03.513Z,7.05
2019-06-26T17:09:34.303Z,6.85
2019-06-26T17:12:04.636Z,7.75
2019-06-26T17:14:35.170Z,7.45
2019-06-26T17:17:06.527Z,6.60
2019-06-26T17:19:45.198Z,7.17
2019-06-26T17:23:37.474Z,7.67
2019-06-26T17:25:30.344Z,7.70
2019-06-26T17:28:14.029Z,8.88
2019-06-26T17:30:52.644Z,8.10
2019-06-26T17:33:30.070Z,7.62
2019-06-26T17:36:06.853Z,7.25
2019-06-26T17:38:38.804Z,6.95
2019-06-26T17:41:37.218Z,7.10
2019-06-26T17:47:46.338Z,7.50
2019-06-26T17:50:23.563Z,7.33
2019-06-26T17:52:56.685Z,7.75
2019-06-26T17:55:30.561Z,7.80
2019-06-26T17:58:27.819Z,7.70
2019-06-26T18:00:47.724Z,7.15
2019-06-26T18:04:05.872Z,7.17
2019-06-26T18:07:05.057Z,7.60
2019-06-26T18:09:42.467Z,7.53
2019-06-26T18:12:37.791Z,8.03
2019-06-26T18:15:15.011Z,7.45
2019-06-26T18:18:00.179Z,7.58
2019-06-26T18:21:20.600Z,7.55
2019-06-26T18:23:56.713Z,7.85
2019-06-26T18:26:31.081Z,8.10
2019-06-26T18:29:11.359Z,7.55
2019-06-26T18:31:43.723Z,7.45
2019-06-26T18:34:14.134Z,7.50
2019-06-26T18:36:44.796Z,6.53
2019-06-26T18:39:19.336Z,7.25
2019-06-26T18:42:09.401Z,7.33
2019-06-26T18:47:27.033Z,7.53
2019-06-26T18:50:07.670Z,7.30
2019-06-26T18:52:38.929Z,7.25
2019-06-26T18:55:11.592Z,7.78
2019-06-26T18:57:46.102Z,8.00
2019-06-26T19:00:18.271Z,7.03
2019-06-26T19:02:48.201Z,7.72
2019-06-26T19:05:17.953Z,7.70
2019-06-26T19:07:48.803Z,7.55
2019-06-26T19:10:23.109Z,8.90
2019-06-26T19:12:56.474Z,9.10
2019-06-26T19:15:28.858Z,8.70
2019-06-26T19:17:59.548Z,8.80
2019-06-26T19:20:35.489Z,9.20
2019-06-26T19:23:08.008Z,8.58
2019-06-26T19:25:54.386Z,9.50
2019-06-26T19:28:48.268Z,9.30
2019-06-26T19:31:20.868Z,8.98
2019-06-26T19:33:51.589Z,9.53
2019-06-26T19:36:49.105Z,9.20
2019-06-26T19:39:08.653Z,9.00
2019-06-26T19:41:39.087Z,9.60
2019-06-26T19:44:09.194Z,9.88
2019-06-26T19:46:41.895Z,9.75
2019-06-26T19:49:11.257Z,9.85
2019-06-26T19:51:42.268Z,9.88
2019-06-26T19:54:25.959Z,11.33
2019-06-26T19:56:43.998Z,10.88
2019-06-26T19:59:13.920Z,18.98
2019-06-26T20:01:44.166Z,21.85
2019-06-26T20:04:14.615Z,13.53
2019-06-26T20:06:44.424Z,11.35
2019-06-26T20:09:14.608Z,10.25
2019-06-26T20:11:46.625Z,10.25
2019-06-26T20:14:16.273Z,10.45
2019-06-26T20:16:46.407Z,11.43
2019-06-26T20:21:50.779Z,10.58
2019-06-26T20:24:20.945Z,9.93
2019-06-26T20:29:19.364Z,10.30
2019-06-26T20:31:49.519Z,10.63
2019-06-26T20:36:49.365Z,10.47
2019-06-26T20:39:19.609Z,10.28
2019-06-26T20:44:19.329Z,10.32
2019-06-26T20:46:49.839Z,9.78
2019-06-26T20:49:21.361Z,10.60
2019-06-26T20:51:51.992Z,9.98
2019-06-26T20:54:22.538Z,9.98
2019-06-26T20:56:53.242Z,10.43
2019-06-26T20:59:24.105Z,10.45
2019-06-26T21:01:54.930Z,9.70
2019-06-26T21:04:25.866Z,10.32
2019-06-26T21:06:56.974Z,9.95
2019-06-26T21:09:27.638Z,10.43
2019-06-26T21:11:59.423Z,9.73
2019-06-26T21:14:30.585Z,9.88
2019-06-26T21:17:01.296Z,9.33
2019-06-26T21:19:32.802Z,9.75
2019-06-26T21:22:03.116Z,9.33
2019-06-26T21:24:33.629Z,10.20
2019-06-26T21:27:04.212Z,9.60
2019-06-26T21:29:35.062Z,9.98
2019-06-26T21:32:05.749Z,9.18
2019-06-26T21:34:36.450Z,9.55
2019-06-26T21:37:07.094Z,9.23
2019-06-26T21:39:38.377Z,10.10
2019-06-26T21:44:37.509Z,9.68
2019-06-26T21:49:37.100Z,10.08
2019-06-26T21:52:07.482Z,10.25
2019-06-26T21:54:37.960Z,9.83
2019-06-26T21:57:26.035Z,9.38
2019-06-26T22:00:15.705Z,9.88
2019-06-26T22:05:35.993Z,9.60
2019-06-26T22:08:24.065Z,9.85
2019-06-26T22:10:58.360Z,9.93
2019-06-26T22:13:28.641Z,9.55
2019-06-26T22:15:58.784Z,9.03
2019-06-26T22:18:38.951Z,10.38
2019-06-26T22:21:09.117Z,10.20
2019-06-26T22:23:39.486Z,9.40
2019-06-26T22:26:09.705Z,9.93
2019-06-26T22:31:08.981Z,10.13
2019-06-26T22:33:40.041Z,10.98
2019-06-26T22:36:10.407Z,10.48
2019-06-26T22:38:40.541Z,10.40
2019-06-26T22:41:11.859Z,10.53
2019-06-26T22:43:41.838Z,10.43
2019-06-26T22:46:12.406Z,10.08
2019-06-26T22:48:42.902Z,9.48
2019-06-26T22:51:13.066Z,10.48
2019-06-26T22:56:12.014Z,9.43
2019-06-26T22:58:42.155Z,10.58
2019-06-26T23:01:12.178Z,10.08
2019-06-26T23:03:44.274Z,8.85
2019-06-26T23:06:14.377Z,10.10
2019-06-26T23:08:45.109Z,9.95
2019-06-26T23:11:15.760Z,10.05
2019-06-26T23:13:46.078Z,10.03
2019-06-26T23:18:46.042Z,10.10
2019-06-26T23:21:16.101Z,9.78
2019-06-26T23:23:46.437Z,9.58
2019-06-26T23:26:24.000Z,9.25
2019-06-26T23:28:48.608Z,10.28
2019-06-26T23:31:18.931Z,9.98
2019-06-26T23:36:18.089Z,9.95
2019-06-26T23:38:48.314Z,10.20
2019-06-26T23:41:31.980Z,9.65
2019-06-26T23:43:59.637Z,10.18
2019-06-26T23:46:29.858Z,9.38
2019-06-26T23:51:30.264Z,10.10
2019-06-26T23:54:00.587Z,10.60
2019-06-26T23:56:39.975Z,10.28
2019-06-26T23:59:02.511Z,10.13
